sensor_id;sensor_type;location;lat;lon;timestamp;temperature;humidity
64888;DHT22;51386;53.082;8.816;2023-06-19T00:01:09;27.00;37.50
64888;DHT22;51386;53.082;8.816;2023-06-19T00:03:36;27.00;37.20
64888;DHT22;51386;53.082;8.816;2023-06-19T00:06:05;27.00;36.80
64888;DHT22;51386;53.082;8.816;2023-06-19T00:08:33;27.00;36.70
64888;DHT22;51386;53.082;8.816;2023-06-19T00:11:00;27.00;36.60
64888;DHT22;51386;53.082;8.816;2023-06-19T00:13:27;27.00;36.60
64888;DHT22;51386;53.082;8.816;2023-06-19T00:15:55;27.00;36.80
64888;DHT22;51386;53.082;8.816;2023-06-19T00:18:26;27.00;36.70
64888;DHT22;51386;53.082;8.816;2023-06-19T00:20:54;27.00;36.80
64888;DHT22;51386;53.082;8.816;2023-06-19T00:23:22;27.00;36.70
64888;DHT22;51386;53.082;8.816;2023-06-19T00:25:49;27.00;36.80
64888;DHT22;51386;53.082;8.816;2023-06-19T00:28:16;27.00;36.90
64888;DHT22;51386;53.082;8.816;2023-06-19T00:30:46;27.00;36.90
64888;DHT22;51386;53.082;8.816;2023-06-19T00:33:15;27.00;36.90
64888;DHT22;51386;53.082;8.816;2023-06-19T00:35:42;27.00;36.80
64888;DHT22;51386;53.082;8.816;2023-06-19T00:38:10;27.00;36.80
64888;DHT22;51386;53.082;8.816;2023-06-19T00:40:37;27.00;36.90
64888;DHT22;51386;53.082;8.816;2023-06-19T00:43:04;27.00;37.70
64888;DHT22;51386;53.082;8.816;2023-06-19T00:45:31;26.90;37.00
64888;DHT22;51386;53.082;8.816;2023-06-19T00:47:59;26.90;37.10
64888;DHT22;51386;53.082;8.816;2023-06-19T00:50:29;26.90;37.50
64888;DHT22;51386;53.082;8.816;2023-06-19T00:52:57;26.90;37.60
64888;DHT22;51386;53.082;8.816;2023-06-19T00:55:26;26.90;37.90
64888;DHT22;51386;53.082;8.816;2023-06-19T00:57:56;26.80;38.00
64888;DHT22;51386;53.082;8.816;2023-06-19T01:00:24;26.80;38.30
64888;DHT22;51386;53.082;8.816;2023-06-19T01:02:51;26.80;38.50
64888;DHT22;51386;53.082;8.816;2023-06-19T01:05:19;26.80;38.70
64888;DHT22;51386;53.082;8.816;2023-06-19T01:07:58;26.70;38.80
64888;DHT22;51386;53.082;8.816;2023-06-19T01:10:29;26.70;38.80
64888;DHT22;51386;53.082;8.816;2023-06-19T01:13:02;26.70;38.80
64888;DHT22;51386;53.082;8.816;2023-06-19T01:15:35;26.70;38.90
64888;DHT22;51386;53.082;8.816;2023-06-19T01:18:04;26.70;39.00
64888;DHT22;51386;53.082;8.816;2023-06-19T01:20:32;26.60;39.10
64888;DHT22;51386;53.082;8.816;2023-06-19T01:23:07;26.60;39.20
64888;DHT22;51386;53.082;8.816;2023-06-19T01:25:34;26.60;39.20
64888;DHT22;51386;53.082;8.816;2023-06-19T01:28:02;26.60;39.20
64888;DHT22;51386;53.082;8.816;2023-06-19T01:30:32;26.60;39.30
64888;DHT22;51386;53.082;8.816;2023-06-19T01:33:06;26.60;39.30
64888;DHT22;51386;53.082;8.816;2023-06-19T01:35:40;26.60;39.50
64888;DHT22;51386;53.082;8.816;2023-06-19T01:38:10;26.60;40.20
64888;DHT22;51386;53.082;8.816;2023-06-19T01:40:39;26.50;39.60
64888;DHT22;51386;53.082;8.816;2023-06-19T01:43:08;26.50;39.70
64888;DHT22;51386;53.082;8.816;2023-06-19T01:45:38;26.50;39.80
64888;DHT22;51386;53.082;8.816;2023-06-19T01:48:06;26.50;39.80
64888;DHT22;51386;53.082;8.816;2023-06-19T01:50:34;26.50;39.90
64888;DHT22;51386;53.082;8.816;2023-06-19T01:53:01;26.40;39.80
64888;DHT22;51386;53.082;8.816;2023-06-19T01:55:29;26.40;39.80
64888;DHT22;51386;53.082;8.816;2023-06-19T01:57:56;26.40;39.70
64888;DHT22;51386;53.082;8.816;2023-06-19T02:00:23;26.40;39.60
64888;DHT22;51386;53.082;8.816;2023-06-19T02:02:50;26.40;39.60
64888;DHT22;51386;53.082;8.816;2023-06-19T02:05:18;26.40;39.50
64888;DHT22;51386;53.082;8.816;2023-06-19T02:07:45;26.40;39.30
64888;DHT22;51386;53.082;8.816;2023-06-19T02:10:12;26.40;39.20
64888;DHT22;51386;53.082;8.816;2023-06-19T02:12:40;26.40;39.10
64888;DHT22;51386;53.082;8.816;2023-06-19T02:15:08;26.40;39.20
64888;DHT22;51386;53.082;8.816;2023-06-19T02:17:36;26.30;39.20
64888;DHT22;51386;53.082;8.816;2023-06-19T02:20:04;26.30;39.20
64888;DHT22;51386;53.082;8.816;2023-06-19T02:22:35;26.30;39.40
64888;DHT22;51386;53.082;8.816;2023-06-19T02:25:02;26.30;39.50
64888;DHT22;51386;53.082;8.816;2023-06-19T02:27:30;26.30;39.60
64888;DHT22;51386;53.082;8.816;2023-06-19T02:29:58;26.30;39.80
64888;DHT22;51386;53.082;8.816;2023-06-19T02:32:25;26.30;39.90
64888;DHT22;51386;53.082;8.816;2023-06-19T02:34:53;26.20;40.00
64888;DHT22;51386;53.082;8.816;2023-06-19T02:37:20;26.20;40.10
64888;DHT22;51386;53.082;8.816;2023-06-19T02:39:47;26.20;40.30
64888;DHT22;51386;53.082;8.816;2023-06-19T02:42:14;26.10;40.30
64888;DHT22;51386;53.082;8.816;2023-06-19T02:44:41;26.10;40.40
64888;DHT22;51386;53.082;8.816;2023-06-19T02:47:11;26.10;40.50
64888;DHT22;51386;53.082;8.816;2023-06-19T02:49:38;26.00;40.60
64888;DHT22;51386;53.082;8.816;2023-06-19T02:52:06;26.00;40.80
64888;DHT22;51386;53.082;8.816;2023-06-19T02:54:34;26.00;41.50
64888;DHT22;51386;53.082;8.816;2023-06-19T02:57:01;25.90;41.20
64888;DHT22;51386;53.082;8.816;2023-06-19T02:59:28;25.90;41.30
64888;DHT22;51386;53.082;8.816;2023-06-19T03:01:55;25.80;41.40
64888;DHT22;51386;53.082;8.816;2023-06-19T03:04:23;25.80;41.70
64888;DHT22;51386;53.082;8.816;2023-06-19T03:06:53;25.80;41.90
64888;DHT22;51386;53.082;8.816;2023-06-19T03:09:21;25.70;41.90
64888;DHT22;51386;53.082;8.816;2023-06-19T03:11:48;25.70;42.10
64888;DHT22;51386;53.082;8.816;2023-06-19T03:14:14;25.70;42.40
64888;DHT22;51386;53.082;8.816;2023-06-19T03:16:41;25.60;42.30
64888;DHT22;51386;53.082;8.816;2023-06-19T03:19:08;25.60;42.30
64888;DHT22;51386;53.082;8.816;2023-06-19T03:21:37;25.70;42.60
64888;DHT22;51386;53.082;8.816;2023-06-19T03:24:04;25.60;42.70
64888;DHT22;51386;53.082;8.816;2023-06-19T03:26:31;25.60;42.70
64888;DHT22;51386;53.082;8.816;2023-06-19T03:28:58;25.60;42.90
64888;DHT22;51386;53.082;8.816;2023-06-19T03:31:25;25.60;43.00
64888;DHT22;51386;53.082;8.816;2023-06-19T03:33:52;25.50;43.10
64888;DHT22;51386;53.082;8.816;2023-06-19T03:36:19;25.50;43.30
64888;DHT22;51386;53.082;8.816;2023-06-19T03:38:48;25.50;43.30
64888;DHT22;51386;53.082;8.816;2023-06-19T03:41:15;25.50;43.70
64888;DHT22;51386;53.082;8.816;2023-06-19T03:43:42;25.40;43.80
64888;DHT22;51386;53.082;8.816;2023-06-19T03:46:08;25.40;44.00
64888;DHT22;51386;53.082;8.816;2023-06-19T03:48:35;25.40;44.20
64888;DHT22;51386;53.082;8.816;2023-06-19T03:51:03;25.40;44.40
64888;DHT22;51386;53.082;8.816;2023-06-19T03:53:30;25.40;44.50
64888;DHT22;51386;53.082;8.816;2023-06-19T03:55:58;25.30;44.50
64888;DHT22;51386;53.082;8.816;2023-06-19T03:58:25;25.30;44.70
64888;DHT22;51386;53.082;8.816;2023-06-19T04:00:52;25.30;44.90
64888;DHT22;51386;53.082;8.816;2023-06-19T04:03:19;25.30;45.20
64888;DHT22;51386;53.082;8.816;2023-06-19T04:05:47;25.30;45.20
64888;DHT22;51386;53.082;8.816;2023-06-19T04:08:14;25.20;45.60
64888;DHT22;51386;53.082;8.816;2023-06-19T04:10:41;25.20;45.90
64888;DHT22;51386;53.082;8.816;2023-06-19T04:13:09;25.20;46.10
64888;DHT22;51386;53.082;8.816;2023-06-19T04:15:36;25.10;46.40
64888;DHT22;51386;53.082;8.816;2023-06-19T04:18:04;25.10;46.40
64888;DHT22;51386;53.082;8.816;2023-06-19T04:20:31;25.00;46.60
64888;DHT22;51386;53.082;8.816;2023-06-19T04:22:58;25.00;46.60
64888;DHT22;51386;53.082;8.816;2023-06-19T04:25:25;25.00;46.80
64888;DHT22;51386;53.082;8.816;2023-06-19T04:27:53;24.90;46.90
64888;DHT22;51386;53.082;8.816;2023-06-19T04:30:21;24.90;46.90
64888;DHT22;51386;53.082;8.816;2023-06-19T04:32:48;24.90;47.00
64888;DHT22;51386;53.082;8.816;2023-06-19T04:35:15;24.90;47.10
64888;DHT22;51386;53.082;8.816;2023-06-19T04:37:44;24.90;47.20
64888;DHT22;51386;53.082;8.816;2023-06-19T04:40:12;24.90;47.30
64888;DHT22;51386;53.082;8.816;2023-06-19T04:42:38;24.90;47.30
64888;DHT22;51386;53.082;8.816;2023-06-19T04:45:06;24.90;47.40
64888;DHT22;51386;53.082;8.816;2023-06-19T04:47:35;24.90;47.60
64888;DHT22;51386;53.082;8.816;2023-06-19T04:50:19;24.80;47.60
64888;DHT22;51386;53.082;8.816;2023-06-19T04:52:46;24.90;47.60
64888;DHT22;51386;53.082;8.816;2023-06-19T04:55:16;24.90;47.90
64888;DHT22;51386;53.082;8.816;2023-06-19T04:57:43;24.90;47.90
64888;DHT22;51386;53.082;8.816;2023-06-19T05:00:11;24.90;47.80
64888;DHT22;51386;53.082;8.816;2023-06-19T05:02:42;24.90;48.00
64888;DHT22;51386;53.082;8.816;2023-06-19T05:05:11;24.90;48.00
64888;DHT22;51386;53.082;8.816;2023-06-19T05:07:38;24.90;48.00
64888;DHT22;51386;53.082;8.816;2023-06-19T05:10:06;24.90;48.10
64888;DHT22;51386;53.082;8.816;2023-06-19T05:12:34;24.90;48.20
64888;DHT22;51386;53.082;8.816;2023-06-19T05:15:02;24.90;48.20
64888;DHT22;51386;53.082;8.816;2023-06-19T05:17:30;24.90;48.40
64888;DHT22;51386;53.082;8.816;2023-06-19T05:19:59;24.90;48.30
64888;DHT22;51386;53.082;8.816;2023-06-19T05:22:26;24.90;48.20
64888;DHT22;51386;53.082;8.816;2023-06-19T05:24:53;25.00;48.20
64888;DHT22;51386;53.082;8.816;2023-06-19T05:27:20;25.00;48.30
64888;DHT22;51386;53.082;8.816;2023-06-19T05:29:47;25.00;48.40
64888;DHT22;51386;53.082;8.816;2023-06-19T05:32:14;25.10;48.50
64888;DHT22;51386;53.082;8.816;2023-06-19T05:34:41;25.10;48.50
64888;DHT22;51386;53.082;8.816;2023-06-19T05:37:09;25.10;48.50
64888;DHT22;51386;53.082;8.816;2023-06-19T05:39:36;25.10;48.50
64888;DHT22;51386;53.082;8.816;2023-06-19T05:42:04;25.10;48.40
64888;DHT22;51386;53.082;8.816;2023-06-19T05:44:31;25.10;48.50
64888;DHT22;51386;53.082;8.816;2023-06-19T05:46:58;25.20;48.60
64888;DHT22;51386;53.082;8.816;2023-06-19T05:49:26;25.20;48.70
64888;DHT22;51386;53.082;8.816;2023-06-19T05:51:52;25.30;48.80
64888;DHT22;51386;53.082;8.816;2023-06-19T05:54:21;25.20;48.70
64888;DHT22;51386;53.082;8.816;2023-06-19T05:56:48;25.20;48.80
64888;DHT22;51386;53.082;8.816;2023-06-19T05:59:17;25.20;48.70
64888;DHT22;51386;53.082;8.816;2023-06-19T06:01:44;25.20;48.90
64888;DHT22;51386;53.082;8.816;2023-06-19T06:04:11;25.10;49.10
64888;DHT22;51386;53.082;8.816;2023-06-19T06:06:38;25.10;49.30
64888;DHT22;51386;53.082;8.816;2023-06-19T06:09:05;25.10;49.50
64888;DHT22;51386;53.082;8.816;2023-06-19T06:11:36;25.10;49.60
64888;DHT22;51386;53.082;8.816;2023-06-19T06:14:04;25.10;49.70
64888;DHT22;51386;53.082;8.816;2023-06-19T06:16:31;25.10;49.80
64888;DHT22;51386;53.082;8.816;2023-06-19T06:18:58;25.20;50.00
64888;DHT22;51386;53.082;8.816;2023-06-19T06:21:25;25.20;50.00
64888;DHT22;51386;53.082;8.816;2023-06-19T06:23:52;25.30;50.00
64888;DHT22;51386;53.082;8.816;2023-06-19T06:26:20;25.30;49.90
64888;DHT22;51386;53.082;8.816;2023-06-19T06:28:49;25.30;49.90
64888;DHT22;51386;53.082;8.816;2023-06-19T06:31:16;25.40;50.10
64888;DHT22;51386;53.082;8.816;2023-06-19T06:33:43;25.40;50.00
64888;DHT22;51386;53.082;8.816;2023-06-19T06:36:11;25.40;50.20
64888;DHT22;51386;53.082;8.816;2023-06-19T06:38:51;25.50;50.00
64888;DHT22;51386;53.082;8.816;2023-06-19T06:41:23;25.60;49.60
64888;DHT22;51386;53.082;8.816;2023-06-19T06:44:22;25.60;49.50
64888;DHT22;51386;53.082;8.816;2023-06-19T06:46:49;25.70;49.50
64888;DHT22;51386;53.082;8.816;2023-06-19T06:49:19;25.80;49.50
64888;DHT22;51386;53.082;8.816;2023-06-19T06:51:47;25.80;49.50
64888;DHT22;51386;53.082;8.816;2023-06-19T06:54:14;25.90;49.40
64888;DHT22;51386;53.082;8.816;2023-06-19T06:56:43;25.90;49.40
64888;DHT22;51386;53.082;8.816;2023-06-19T06:59:18;26.00;49.50
64888;DHT22;51386;53.082;8.816;2023-06-19T07:01:52;26.00;49.70
64888;DHT22;51386;53.082;8.816;2023-06-19T07:04:21;26.00;49.70
64888;DHT22;51386;53.082;8.816;2023-06-19T07:06:49;26.00;49.90
64888;DHT22;51386;53.082;8.816;2023-06-19T07:09:22;26.00;49.80
64888;DHT22;51386;53.082;8.816;2023-06-19T07:11:50;26.00;49.70
64888;DHT22;51386;53.082;8.816;2023-06-19T07:14:20;26.00;50.00
64888;DHT22;51386;53.082;8.816;2023-06-19T07:16:48;26.00;50.00
64888;DHT22;51386;53.082;8.816;2023-06-19T07:19:17;26.10;50.20
64888;DHT22;51386;53.082;8.816;2023-06-19T07:21:44;26.20;50.20
64888;DHT22;51386;53.082;8.816;2023-06-19T07:24:11;26.20;50.20
64888;DHT22;51386;53.082;8.816;2023-06-19T07:26:38;26.30;50.20
64888;DHT22;51386;53.082;8.816;2023-06-19T07:29:05;26.40;50.30
64888;DHT22;51386;53.082;8.816;2023-06-19T07:31:32;26.50;50.30
64888;DHT22;51386;53.082;8.816;2023-06-19T07:33:59;26.60;50.30
64888;DHT22;51386;53.082;8.816;2023-06-19T07:36:27;26.70;50.50
64888;DHT22;51386;53.082;8.816;2023-06-19T07:38:55;26.90;50.40
64888;DHT22;51386;53.082;8.816;2023-06-19T07:41:22;27.10;50.30
64888;DHT22;51386;53.082;8.816;2023-06-19T07:43:49;27.30;50.20
64888;DHT22;51386;53.082;8.816;2023-06-19T07:46:16;27.40;49.90
64888;DHT22;51386;53.082;8.816;2023-06-19T07:48:43;27.60;49.70
64888;DHT22;51386;53.082;8.816;2023-06-19T07:51:11;27.70;49.60
64888;DHT22;51386;53.082;8.816;2023-06-19T07:53:39;27.70;49.40
64888;DHT22;51386;53.082;8.816;2023-06-19T07:56:06;27.80;49.40
64888;DHT22;51386;53.082;8.816;2023-06-19T07:58:35;27.80;49.40
64888;DHT22;51386;53.082;8.816;2023-06-19T08:01:02;27.80;49.60
64888;DHT22;51386;53.082;8.816;2023-06-19T08:03:29;27.90;49.90
64888;DHT22;51386;53.082;8.816;2023-06-19T08:05:57;27.90;49.40
64888;DHT22;51386;53.082;8.816;2023-06-19T08:08:24;28.00;49.60
64888;DHT22;51386;53.082;8.816;2023-06-19T08:10:52;28.00;50.00
64888;DHT22;51386;53.082;8.816;2023-06-19T08:13:19;28.10;49.10
64888;DHT22;51386;53.082;8.816;2023-06-19T08:15:47;28.20;49.10
64888;DHT22;51386;53.082;8.816;2023-06-19T08:18:13;28.20;49.20
64888;DHT22;51386;53.082;8.816;2023-06-19T08:20:40;28.40;49.00
64888;DHT22;51386;53.082;8.816;2023-06-19T08:23:07;28.50;48.80
64888;DHT22;51386;53.082;8.816;2023-06-19T08:25:34;28.60;48.60
64888;DHT22;51386;53.082;8.816;2023-06-19T08:28:03;28.70;48.20
64888;DHT22;51386;53.082;8.816;2023-06-19T08:30:31;28.80;47.90
64888;DHT22;51386;53.082;8.816;2023-06-19T08:32:58;28.90;47.90
64888;DHT22;51386;53.082;8.816;2023-06-19T08:35:25;28.90;47.90
64888;DHT22;51386;53.082;8.816;2023-06-19T08:37:52;28.90;47.90
64888;DHT22;51386;53.082;8.816;2023-06-19T08:40:19;28.90;48.10
64888;DHT22;51386;53.082;8.816;2023-06-19T08:42:47;28.90;48.00
64888;DHT22;51386;53.082;8.816;2023-06-19T08:45:15;29.00;48.00
64888;DHT22;51386;53.082;8.816;2023-06-19T08:47:45;29.10;47.90
64888;DHT22;51386;53.082;8.816;2023-06-19T08:50:13;29.20;47.80
64888;DHT22;51386;53.082;8.816;2023-06-19T08:52:40;29.20;47.70
64888;DHT22;51386;53.082;8.816;2023-06-19T08:55:08;29.30;47.50
64888;DHT22;51386;53.082;8.816;2023-06-19T08:57:35;29.40;47.50
64888;DHT22;51386;53.082;8.816;2023-06-19T09:00:05;29.60;47.50
64888;DHT22;51386;53.082;8.816;2023-06-19T09:02:42;30.10;46.70
64888;DHT22;51386;53.082;8.816;2023-06-19T09:05:12;30.70;45.80
64888;DHT22;51386;53.082;8.816;2023-06-19T09:07:40;31.40;44.90
64888;DHT22;51386;53.082;8.816;2023-06-19T09:10:15;32.10;42.80
64888;DHT22;51386;53.082;8.816;2023-06-19T09:12:44;32.90;40.70
64888;DHT22;51386;53.082;8.816;2023-06-19T09:15:22;33.60;39.90
64888;DHT22;51386;53.082;8.816;2023-06-19T09:18:04;34.20;38.60
64888;DHT22;51386;53.082;8.816;2023-06-19T09:20:33;34.70;37.50
64888;DHT22;51386;53.082;8.816;2023-06-19T09:23:01;34.90;36.40
64888;DHT22;51386;53.082;8.816;2023-06-19T09:25:28;35.00;35.40
64888;DHT22;51386;53.082;8.816;2023-06-19T09:27:56;34.90;34.80
64888;DHT22;51386;53.082;8.816;2023-06-19T09:30:23;34.70;34.70
64888;DHT22;51386;53.082;8.816;2023-06-19T09:32:51;34.60;35.20
64888;DHT22;51386;53.082;8.816;2023-06-19T09:35:19;34.40;35.40
64888;DHT22;51386;53.082;8.816;2023-06-19T09:37:48;34.50;35.80
64888;DHT22;51386;53.082;8.816;2023-06-19T09:40:17;34.50;36.10
64888;DHT22;51386;53.082;8.816;2023-06-19T09:42:44;34.50;35.60
64888;DHT22;51386;53.082;8.816;2023-06-19T09:45:15;34.60;36.00
64888;DHT22;51386;53.082;8.816;2023-06-19T09:47:46;34.80;35.90
64888;DHT22;51386;53.082;8.816;2023-06-19T09:50:17;35.10;34.70
64888;DHT22;51386;53.082;8.816;2023-06-19T09:52:46;35.40;34.50
64888;DHT22;51386;53.082;8.816;2023-06-19T09:55:14;35.70;34.10
64888;DHT22;51386;53.082;8.816;2023-06-19T09:57:43;36.00;33.20
64888;DHT22;51386;53.082;8.816;2023-06-19T10:00:12;36.40;33.00
64888;DHT22;51386;53.082;8.816;2023-06-19T10:02:44;36.70;32.20
64888;DHT22;51386;53.082;8.816;2023-06-19T10:05:13;37.00;31.40
64888;DHT22;51386;53.082;8.816;2023-06-19T10:07:43;37.20;31.30
64888;DHT22;51386;53.082;8.816;2023-06-19T10:10:23;37.30;30.90
64888;DHT22;51386;53.082;8.816;2023-06-19T10:12:52;37.10;30.40
64888;DHT22;51386;53.082;8.816;2023-06-19T10:15:22;36.70;30.90
64888;DHT22;51386;53.082;8.816;2023-06-19T10:17:52;36.10;31.90
64888;DHT22;51386;53.082;8.816;2023-06-19T10:20:28;35.50;32.90
64888;DHT22;51386;53.082;8.816;2023-06-19T10:23:02;34.90;34.10
64888;DHT22;51386;53.082;8.816;2023-06-19T10:25:33;34.30;35.20
64888;DHT22;51386;53.082;8.816;2023-06-19T10:28:02;33.90;36.10
64888;DHT22;51386;53.082;8.816;2023-06-19T10:30:34;33.50;36.90
64888;DHT22;51386;53.082;8.816;2023-06-19T10:33:02;33.20;37.80
64888;DHT22;51386;53.082;8.816;2023-06-19T10:35:37;32.90;38.30
64888;DHT22;51386;53.082;8.816;2023-06-19T10:38:05;32.70;39.10
64888;DHT22;51386;53.082;8.816;2023-06-19T10:40:34;32.40;39.30
64888;DHT22;51386;53.082;8.816;2023-06-19T10:43:01;32.20;40.20
64888;DHT22;51386;53.082;8.816;2023-06-19T10:45:29;32.00;41.20
64888;DHT22;51386;53.082;8.816;2023-06-19T10:48:01;31.80;42.00
64888;DHT22;51386;53.082;8.816;2023-06-19T10:50:37;31.50;42.60
64888;DHT22;51386;53.082;8.816;2023-06-19T10:53:08;31.30;43.50
64888;DHT22;51386;53.082;8.816;2023-06-19T10:55:36;31.10;43.90
64888;DHT22;51386;53.082;8.816;2023-06-19T10:58:03;30.90;44.00
64888;DHT22;51386;53.082;8.816;2023-06-19T11:00:32;30.80;44.50
64888;DHT22;51386;53.082;8.816;2023-06-19T11:03:00;30.70;44.80
64888;DHT22;51386;53.082;8.816;2023-06-19T11:05:27;30.60;45.00
64888;DHT22;51386;53.082;8.816;2023-06-19T11:07:57;30.50;45.20
64888;DHT22;51386;53.082;8.816;2023-06-19T11:10:27;30.40;45.60
64888;DHT22;51386;53.082;8.816;2023-06-19T11:12:58;30.30;45.60
64888;DHT22;51386;53.082;8.816;2023-06-19T11:15:29;30.20;45.90
64888;DHT22;51386;53.082;8.816;2023-06-19T11:17:57;30.10;46.20
64888;DHT22;51386;53.082;8.816;2023-06-19T11:20:25;29.90;46.50
64888;DHT22;51386;53.082;8.816;2023-06-19T11:22:55;29.80;46.70
64888;DHT22;51386;53.082;8.816;2023-06-19T11:25:25;29.80;46.60
64888;DHT22;51386;53.082;8.816;2023-06-19T11:28:03;29.70;46.60
64888;DHT22;51386;53.082;8.816;2023-06-19T11:30:31;29.80;46.30
64888;DHT22;51386;53.082;8.816;2023-06-19T11:33:00;29.70;46.30
64888;DHT22;51386;53.082;8.816;2023-06-19T11:35:32;29.80;46.30
64888;DHT22;51386;53.082;8.816;2023-06-19T11:38:02;29.80;45.80
64888;DHT22;51386;53.082;8.816;2023-06-19T11:40:39;29.70;45.50
64888;DHT22;51386;53.082;8.816;2023-06-19T11:43:09;29.70;45.70
64888;DHT22;51386;53.082;8.816;2023-06-19T11:45:45;29.70;45.90
64888;DHT22;51386;53.082;8.816;2023-06-19T11:48:20;29.70;46.20
64888;DHT22;51386;53.082;8.816;2023-06-19T11:50:48;29.60;46.30
64888;DHT22;51386;53.082;8.816;2023-06-19T11:53:15;29.60;46.60
64888;DHT22;51386;53.082;8.816;2023-06-19T11:55:42;29.60;46.90
64888;DHT22;51386;53.082;8.816;2023-06-19T11:58:11;29.60;47.20
64888;DHT22;51386;53.082;8.816;2023-06-19T12:00:38;29.60;47.60
64888;DHT22;51386;53.082;8.816;2023-06-19T12:03:06;29.50;47.80
64888;DHT22;51386;53.082;8.816;2023-06-19T12:05:33;29.40;47.90
64888;DHT22;51386;53.082;8.816;2023-06-19T12:08:00;29.30;48.50
64888;DHT22;51386;53.082;8.816;2023-06-19T12:10:29;29.30;48.60
64888;DHT22;51386;53.082;8.816;2023-06-19T12:12:56;29.20;48.90
64888;DHT22;51386;53.082;8.816;2023-06-19T12:15:25;29.10;49.20
64888;DHT22;51386;53.082;8.816;2023-06-19T12:17:52;29.10;49.50
64888;DHT22;51386;53.082;8.816;2023-06-19T12:20:20;29.10;49.50
64888;DHT22;51386;53.082;8.816;2023-06-19T12:22:47;29.10;48.70
64888;DHT22;51386;53.082;8.816;2023-06-19T12:25:14;29.00;48.50
64888;DHT22;51386;53.082;8.816;2023-06-19T12:27:41;29.10;48.40
64888;DHT22;51386;53.082;8.816;2023-06-19T12:30:09;29.00;48.20
64888;DHT22;51386;53.082;8.816;2023-06-19T12:32:38;29.10;48.40
64888;DHT22;51386;53.082;8.816;2023-06-19T12:35:05;29.10;48.50
64888;DHT22;51386;53.082;8.816;2023-06-19T12:37:33;29.10;48.70
64888;DHT22;51386;53.082;8.816;2023-06-19T12:40:00;29.10;48.80
64888;DHT22;51386;53.082;8.816;2023-06-19T12:42:27;29.10;49.10
64888;DHT22;51386;53.082;8.816;2023-06-19T12:44:54;29.10;49.20
64888;DHT22;51386;53.082;8.816;2023-06-19T12:47:21;29.10;49.10
64888;DHT22;51386;53.082;8.816;2023-06-19T12:49:50;29.00;49.20
64888;DHT22;51386;53.082;8.816;2023-06-19T12:52:17;29.00;49.30
64888;DHT22;51386;53.082;8.816;2023-06-19T12:54:44;29.00;49.40
64888;DHT22;51386;53.082;8.816;2023-06-19T12:57:11;29.00;49.50
64888;DHT22;51386;53.082;8.816;2023-06-19T12:59:38;28.90;49.70
64888;DHT22;51386;53.082;8.816;2023-06-19T13:02:05;28.80;49.90
64888;DHT22;51386;53.082;8.816;2023-06-19T13:04:32;28.80;50.10
64888;DHT22;51386;53.082;8.816;2023-06-19T13:07:01;28.60;50.60
64888;DHT22;51386;53.082;8.816;2023-06-19T13:09:28;28.60;50.60
64888;DHT22;51386;53.082;8.816;2023-06-19T13:11:56;28.50;50.60
64888;DHT22;51386;53.082;8.816;2023-06-19T13:14:23;28.50;50.90
64888;DHT22;51386;53.082;8.816;2023-06-19T13:16:50;28.50;50.90
64888;DHT22;51386;53.082;8.816;2023-06-19T13:19:17;28.50;50.90
64888;DHT22;51386;53.082;8.816;2023-06-19T13:21:44;28.40;50.90
64888;DHT22;51386;53.082;8.816;2023-06-19T13:24:13;28.40;51.20
64888;DHT22;51386;53.082;8.816;2023-06-19T13:26:40;28.40;51.20
64888;DHT22;51386;53.082;8.816;2023-06-19T13:29:07;28.40;51.60
64888;DHT22;51386;53.082;8.816;2023-06-19T13:31:34;28.40;51.50
64888;DHT22;51386;53.082;8.816;2023-06-19T13:34:02;28.40;51.60
64888;DHT22;51386;53.082;8.816;2023-06-19T13:36:30;28.50;51.60
64888;DHT22;51386;53.082;8.816;2023-06-19T13:38:57;28.50;51.40
64888;DHT22;51386;53.082;8.816;2023-06-19T13:41:25;28.60;51.40
64888;DHT22;51386;53.082;8.816;2023-06-19T13:43:53;28.60;51.20
64888;DHT22;51386;53.082;8.816;2023-06-19T13:46:20;28.70;51.10
64888;DHT22;51386;53.082;8.816;2023-06-19T13:48:51;28.70;50.80
64888;DHT22;51386;53.082;8.816;2023-06-19T13:51:19;28.80;50.80
64888;DHT22;51386;53.082;8.816;2023-06-19T13:53:47;28.80;50.70
64888;DHT22;51386;53.082;8.816;2023-06-19T13:56:15;28.90;50.80
64888;DHT22;51386;53.082;8.816;2023-06-19T13:58:45;28.90;50.50
64888;DHT22;51386;53.082;8.816;2023-06-19T14:01:12;29.00;50.40
64888;DHT22;51386;53.082;8.816;2023-06-19T14:03:39;29.10;50.20
64888;DHT22;51386;53.082;8.816;2023-06-19T14:06:06;29.10;49.80
64888;DHT22;51386;53.082;8.816;2023-06-19T14:08:34;29.20;49.60
64888;DHT22;51386;53.082;8.816;2023-06-19T14:11:01;29.30;49.20
64888;DHT22;51386;53.082;8.816;2023-06-19T14:13:28;29.30;49.50
64888;DHT22;51386;53.082;8.816;2023-06-19T14:15:57;29.40;48.80
64888;DHT22;51386;53.082;8.816;2023-06-19T14:18:24;29.40;49.50
64888;DHT22;51386;53.082;8.816;2023-06-19T14:20:51;29.50;48.90
64888;DHT22;51386;53.082;8.816;2023-06-19T14:23:18;29.60;48.50
64888;DHT22;51386;53.082;8.816;2023-06-19T14:25:45;29.60;48.10
64888;DHT22;51386;53.082;8.816;2023-06-19T14:28:12;29.60;47.80
64888;DHT22;51386;53.082;8.816;2023-06-19T14:30:41;29.70;48.10
64888;DHT22;51386;53.082;8.816;2023-06-19T14:33:09;29.70;47.80
64888;DHT22;51386;53.082;8.816;2023-06-19T14:35:41;29.70;47.70
64888;DHT22;51386;53.082;8.816;2023-06-19T14:38:08;29.80;47.50
64888;DHT22;51386;53.082;8.816;2023-06-19T14:40:35;29.90;47.10
64888;DHT22;51386;53.082;8.816;2023-06-19T14:43:02;29.90;46.60
64888;DHT22;51386;53.082;8.816;2023-06-19T14:45:30;29.90;46.10
64888;DHT22;51386;53.082;8.816;2023-06-19T14:47:57;29.80;45.90
64888;DHT22;51386;53.082;8.816;2023-06-19T14:50:25;29.80;46.20
64888;DHT22;51386;53.082;8.816;2023-06-19T14:52:53;29.70;46.50
64888;DHT22;51386;53.082;8.816;2023-06-19T14:55:20;29.70;46.70
64888;DHT22;51386;53.082;8.816;2023-06-19T14:57:47;29.70;47.30
64888;DHT22;51386;53.082;8.816;2023-06-19T15:00:15;29.70;47.70
64888;DHT22;51386;53.082;8.816;2023-06-19T15:02:42;29.80;47.80
64888;DHT22;51386;53.082;8.816;2023-06-19T15:05:09;29.90;47.60
64888;DHT22;51386;53.082;8.816;2023-06-19T15:07:37;30.00;47.20
64888;DHT22;51386;53.082;8.816;2023-06-19T15:10:05;30.10;46.40
64888;DHT22;51386;53.082;8.816;2023-06-19T15:12:37;30.30;46.50
64888;DHT22;51386;53.082;8.816;2023-06-19T15:15:05;30.60;45.90
64888;DHT22;51386;53.082;8.816;2023-06-19T15:17:33;30.80;45.50
64888;DHT22;51386;53.082;8.816;2023-06-19T15:20:01;31.10;44.50
64888;DHT22;51386;53.082;8.816;2023-06-19T15:22:29;31.30;43.70
64888;DHT22;51386;53.082;8.816;2023-06-19T15:24:57;31.50;42.90
64888;DHT22;51386;53.082;8.816;2023-06-19T15:27:24;31.50;42.00
64888;DHT22;51386;53.082;8.816;2023-06-19T15:29:51;31.60;41.70
64888;DHT22;51386;53.082;8.816;2023-06-19T15:32:18;31.60;41.50
64888;DHT22;51386;53.082;8.816;2023-06-19T15:34:45;31.50;41.30
64888;DHT22;51386;53.082;8.816;2023-06-19T15:37:12;31.50;41.30